Inman, Kansas
Current Conditions -  °F | °C
As of 3:52 PM on Friday 24 Oct 2014 (Local Time) from KHUT Reporting Station
Clear Clear  
Wind Chill: 29°   Ceiling: Unl
Heat Index: 29°   Visibility: 10mi
Dew Point: 16°   Wind: 12mph
Humidity: 44%   Direction: 200°SSW
Pressure: 29.98"   Gusts: 20mph
Location:  38.23°N, 97.77°W
Report Text: KHUT 242052Z 20010G17KT 10SM CLR 29/16 A2998 RMK AO2 SLP131 T02890156 56022
Loading
Personal Weather Stations






























Interactive Weather Map
Tropical Storm Tracking
New forecast layout! Learn more

10-Day Weather Forecast

Advertisements
Track Severe Weather on mobile